sensor_id;sensor_type;location;lat;lon;timestamp;temperature;humidity
27224;DHT22;14965;50.660;13.226;2023-07-20T00:01:34;15.10;99.90
27224;DHT22;14965;50.660;13.226;2023-07-20T00:04:00;15.10;99.90
27224;DHT22;14965;50.660;13.226;2023-07-20T00:06:26;15.20;99.90
27224;DHT22;14965;50.660;13.226;2023-07-20T00:08:52;15.20;99.90
27224;DHT22;14965;50.660;13.226;2023-07-20T00:11:18;15.30;99.90
27224;DHT22;14965;50.660;13.226;2023-07-20T00:13:43;15.30;99.90
27224;DHT22;14965;50.660;13.226;2023-07-20T00:16:09;15.30;99.90
27224;DHT22;14965;50.660;13.226;2023-07-20T00:18:37;15.30;99.90
27224;DHT22;14965;50.660;13.226;2023-07-20T00:21:03;15.20;99.90
27224;DHT22;14965;50.660;13.226;2023-07-20T00:23:28;15.10;99.90
27224;DHT22;14965;50.660;13.226;2023-07-20T00:25:54;15.00;99.90
27224;DHT22;14965;50.660;13.226;2023-07-20T00:28:20;15.10;99.90
27224;DHT22;14965;50.660;13.226;2023-07-20T00:30:46;15.10;99.90
27224;DHT22;14965;50.660;13.226;2023-07-20T00:33:13;15.20;99.90
27224;DHT22;14965;50.660;13.226;2023-07-20T00:35:44;15.30;99.90
27224;DHT22;14965;50.660;13.226;2023-07-20T00:38:10;15.30;99.90
27224;DHT22;14965;50.660;13.226;2023-07-20T00:40:36;15.40;99.90
27224;DHT22;14965;50.660;13.226;2023-07-20T00:43:02;15.40;99.90
27224;DHT22;14965;50.660;13.226;2023-07-20T00:45:29;15.30;99.90
27224;DHT22;14965;50.660;13.226;2023-07-20T00:47:56;15.30;99.90
27224;DHT22;14965;50.660;13.226;2023-07-20T00:50:23;15.30;99.90
27224;DHT22;14965;50.660;13.226;2023-07-20T00:52:51;15.40;99.90
27224;DHT22;14965;50.660;13.226;2023-07-20T00:55:18;15.30;99.90
27224;DHT22;14965;50.660;13.226;2023-07-20T00:57:44;15.30;99.90
27224;DHT22;14965;50.660;13.226;2023-07-20T01:00:11;15.30;99.90
27224;DHT22;14965;50.660;13.226;2023-07-20T01:02:38;15.30;99.90
27224;DHT22;14965;50.660;13.226;2023-07-20T01:05:05;15.30;99.90
27224;DHT22;14965;50.660;13.226;2023-07-20T01:07:35;15.30;99.90
27224;DHT22;14965;50.660;13.226;2023-07-20T01:10:12;15.20;99.90
27224;DHT22;14965;50.660;13.226;2023-07-20T01:12:46;15.20;99.90
27224;DHT22;14965;50.660;13.226;2023-07-20T01:15:13;15.20;99.90
27224;DHT22;14965;50.660;13.226;2023-07-20T01:17:40;15.20;99.90
27224;DHT22;14965;50.660;13.226;2023-07-20T01:20:07;15.10;99.90
27224;DHT22;14965;50.660;13.226;2023-07-20T01:22:52;15.10;99.90
27224;DHT22;14965;50.660;13.226;2023-07-20T01:26:02;15.10;99.90
27224;DHT22;14965;50.660;13.226;2023-07-20T01:28:57;15.10;99.90
27224;DHT22;14965;50.660;13.226;2023-07-20T01:31:38;15.10;99.90
27224;DHT22;14965;50.660;13.226;2023-07-20T01:34:06;15.10;99.90
27224;DHT22;14965;50.660;13.226;2023-07-20T01:36:37;15.10;99.90
27224;DHT22;14965;50.660;13.226;2023-07-20T01:39:04;15.10;99.90
27224;DHT22;14965;50.660;13.226;2023-07-20T01:41:33;15.10;99.90
27224;DHT22;14965;50.660;13.226;2023-07-20T01:43:59;15.20;99.90
27224;DHT22;14965;50.660;13.226;2023-07-20T01:46:25;15.20;99.90
27224;DHT22;14965;50.660;13.226;2023-07-20T01:48:53;15.30;99.90
27224;DHT22;14965;50.660;13.226;2023-07-20T01:51:20;15.30;99.90
27224;DHT22;14965;50.660;13.226;2023-07-20T01:53:46;15.30;99.90
27224;DHT22;14965;50.660;13.226;2023-07-20T01:56:11;15.20;99.90
27224;DHT22;14965;50.660;13.226;2023-07-20T01:58:38;15.10;99.90
27224;DHT22;14965;50.660;13.226;2023-07-20T02:01:04;15.10;99.90
27224;DHT22;14965;50.660;13.226;2023-07-20T02:03:30;15.00;99.90
27224;DHT22;14965;50.660;13.226;2023-07-20T02:05:57;15.10;99.90
27224;DHT22;14965;50.660;13.226;2023-07-20T02:08:23;15.20;99.90
27224;DHT22;14965;50.660;13.226;2023-07-20T02:10:49;15.20;99.90
27224;DHT22;14965;50.660;13.226;2023-07-20T02:13:15;15.20;99.90
27224;DHT22;14965;50.660;13.226;2023-07-20T02:15:41;15.20;99.90
27224;DHT22;14965;50.660;13.226;2023-07-20T02:18:07;15.30;99.90
27224;DHT22;14965;50.660;13.226;2023-07-20T02:20:33;15.30;99.90
27224;DHT22;14965;50.660;13.226;2023-07-20T02:23:00;15.20;99.90
27224;DHT22;14965;50.660;13.226;2023-07-20T02:25:26;15.20;99.90
27224;DHT22;14965;50.660;13.226;2023-07-20T02:27:52;15.20;99.90
27224;DHT22;14965;50.660;13.226;2023-07-20T02:30:18;15.20;99.90
27224;DHT22;14965;50.660;13.226;2023-07-20T02:32:44;15.20;99.90
27224;DHT22;14965;50.660;13.226;2023-07-20T02:35:10;15.20;99.90
27224;DHT22;14965;50.660;13.226;2023-07-20T02:37:36;15.20;99.90
27224;DHT22;14965;50.660;13.226;2023-07-20T02:40:05;15.20;99.90
27224;DHT22;14965;50.660;13.226;2023-07-20T02:42:31;15.20;99.90
27224;DHT22;14965;50.660;13.226;2023-07-20T02:44:57;15.20;99.90
27224;DHT22;14965;50.660;13.226;2023-07-20T02:47:23;15.10;99.90
27224;DHT22;14965;50.660;13.226;2023-07-20T02:49:49;15.10;99.90
27224;DHT22;14965;50.660;13.226;2023-07-20T02:52:15;15.10;99.90
27224;DHT22;14965;50.660;13.226;2023-07-20T02:54:41;15.00;99.90
27224;DHT22;14965;50.660;13.226;2023-07-20T02:57:09;15.10;99.90
27224;DHT22;14965;50.660;13.226;2023-07-20T02:59:34;15.10;99.90
27224;DHT22;14965;50.660;13.226;2023-07-20T03:02:00;15.10;99.90
27224;DHT22;14965;50.660;13.226;2023-07-20T03:04:26;15.10;99.90
27224;DHT22;14965;50.660;13.226;2023-07-20T03:06:52;15.10;99.90
27224;DHT22;14965;50.660;13.226;2023-07-20T03:09:18;15.10;99.90
27224;DHT22;14965;50.660;13.226;2023-07-20T03:11:44;15.00;99.90
27224;DHT22;14965;50.660;13.226;2023-07-20T03:14:12;15.00;99.90
27224;DHT22;14965;50.660;13.226;2023-07-20T03:16:38;14.90;99.90
27224;DHT22;14965;50.660;13.226;2023-07-20T03:19:03;14.90;99.90
27224;DHT22;14965;50.660;13.226;2023-07-20T03:21:29;14.80;99.90
27224;DHT22;14965;50.660;13.226;2023-07-20T03:23:56;14.80;99.90
27224;DHT22;14965;50.660;13.226;2023-07-20T03:26:21;14.80;99.90
27224;DHT22;14965;50.660;13.226;2023-07-20T03:28:48;14.80;99.90
27224;DHT22;14965;50.660;13.226;2023-07-20T03:31:16;14.80;99.90
27224;DHT22;14965;50.660;13.226;2023-07-20T03:33:42;14.80;99.90
27224;DHT22;14965;50.660;13.226;2023-07-20T03:36:08;14.90;99.90
27224;DHT22;14965;50.660;13.226;2023-07-20T03:38:34;14.90;99.90
27224;DHT22;14965;50.660;13.226;2023-07-20T03:41:00;14.80;99.90
27224;DHT22;14965;50.660;13.226;2023-07-20T03:43:27;14.70;99.90
27224;DHT22;14965;50.660;13.226;2023-07-20T03:45:54;14.70;99.90
27224;DHT22;14965;50.660;13.226;2023-07-20T03:48:23;14.70;99.90
27224;DHT22;14965;50.660;13.226;2023-07-20T03:50:51;14.70;99.90
27224;DHT22;14965;50.660;13.226;2023-07-20T03:53:18;14.80;99.90
27224;DHT22;14965;50.660;13.226;2023-07-20T03:55:45;14.90;99.90
27224;DHT22;14965;50.660;13.226;2023-07-20T03:58:12;15.00;99.90
27224;DHT22;14965;50.660;13.226;2023-07-20T04:00:39;15.00;99.90
27224;DHT22;14965;50.660;13.226;2023-07-20T04:03:05;15.00;99.90
27224;DHT22;14965;50.660;13.226;2023-07-20T04:05:32;15.10;99.90
27224;DHT22;14965;50.660;13.226;2023-07-20T04:07:58;15.10;99.90
27224;DHT22;14965;50.660;13.226;2023-07-20T04:10:24;15.20;99.90
27224;DHT22;14965;50.660;13.226;2023-07-20T04:12:50;15.20;99.90
27224;DHT22;14965;50.660;13.226;2023-07-20T04:15:16;15.30;99.90
27224;DHT22;14965;50.660;13.226;2023-07-20T04:17:42;15.30;99.90
27224;DHT22;14965;50.660;13.226;2023-07-20T04:20:08;15.40;99.90
27224;DHT22;14965;50.660;13.226;2023-07-20T04:22:36;15.40;99.90
27224;DHT22;14965;50.660;13.226;2023-07-20T04:25:03;15.40;99.90
27224;DHT22;14965;50.660;13.226;2023-07-20T04:27:32;15.40;99.90
27224;DHT22;14965;50.660;13.226;2023-07-20T04:29:58;15.30;99.90
27224;DHT22;14965;50.660;13.226;2023-07-20T04:32:24;15.40;99.90
27224;DHT22;14965;50.660;13.226;2023-07-20T04:34:50;15.50;99.90
27224;DHT22;14965;50.660;13.226;2023-07-20T04:37:16;15.60;99.90
27224;DHT22;14965;50.660;13.226;2023-07-20T04:39:44;15.70;99.90
27224;DHT22;14965;50.660;13.226;2023-07-20T04:42:10;15.90;99.90
27224;DHT22;14965;50.660;13.226;2023-07-20T04:44:36;16.00;99.90
27224;DHT22;14965;50.660;13.226;2023-07-20T04:47:01;16.00;99.90
27224;DHT22;14965;50.660;13.226;2023-07-20T04:49:28;16.00;99.90
27224;DHT22;14965;50.660;13.226;2023-07-20T04:51:53;15.80;99.90
27224;DHT22;14965;50.660;13.226;2023-07-20T04:54:19;15.70;99.90
27224;DHT22;14965;50.660;13.226;2023-07-20T04:56:47;15.70;99.90
27224;DHT22;14965;50.660;13.226;2023-07-20T04:59:13;15.70;99.90
27224;DHT22;14965;50.660;13.226;2023-07-20T05:01:38;15.80;99.90
27224;DHT22;14965;50.660;13.226;2023-07-20T05:04:04;15.70;99.90
27224;DHT22;14965;50.660;13.226;2023-07-20T05:06:30;15.70;99.90
27224;DHT22;14965;50.660;13.226;2023-07-20T05:08:56;15.80;99.90
27224;DHT22;14965;50.660;13.226;2023-07-20T05:11:22;15.80;99.90
27224;DHT22;14965;50.660;13.226;2023-07-20T05:13:49;15.90;99.90
27224;DHT22;14965;50.660;13.226;2023-07-20T05:16:15;15.80;99.90
27224;DHT22;14965;50.660;13.226;2023-07-20T05:18:41;15.70;99.90
27224;DHT22;14965;50.660;13.226;2023-07-20T05:21:07;15.70;99.90
27224;DHT22;14965;50.660;13.226;2023-07-20T05:23:33;15.70;99.90
27224;DHT22;14965;50.660;13.226;2023-07-20T05:25:59;15.70;99.90
27224;DHT22;14965;50.660;13.226;2023-07-20T05:28:25;15.80;99.90
27224;DHT22;14965;50.660;13.226;2023-07-20T05:30:53;15.90;99.90
27224;DHT22;14965;50.660;13.226;2023-07-20T05:33:20;16.00;99.90
27224;DHT22;14965;50.660;13.226;2023-07-20T05:35:46;16.00;99.90
27224;DHT22;14965;50.660;13.226;2023-07-20T05:38:12;16.10;99.90
27224;DHT22;14965;50.660;13.226;2023-07-20T05:40:39;16.20;99.90
27224;DHT22;14965;50.660;13.226;2023-07-20T05:43:06;16.20;99.90
27224;DHT22;14965;50.660;13.226;2023-07-20T05:45:32;16.10;99.90
27224;DHT22;14965;50.660;13.226;2023-07-20T05:47:59;16.00;99.90
27224;DHT22;14965;50.660;13.226;2023-07-20T05:50:25;15.90;99.90
27224;DHT22;14965;50.660;13.226;2023-07-20T05:52:52;15.90;99.90
27224;DHT22;14965;50.660;13.226;2023-07-20T05:55:19;15.90;99.90
27224;DHT22;14965;50.660;13.226;2023-07-20T05:57:45;15.90;99.90
27224;DHT22;14965;50.660;13.226;2023-07-20T06:00:11;15.90;99.90
27224;DHT22;14965;50.660;13.226;2023-07-20T06:02:38;15.90;99.90
27224;DHT22;14965;50.660;13.226;2023-07-20T06:05:07;15.90;99.90
27224;DHT22;14965;50.660;13.226;2023-07-20T06:07:33;15.70;99.90
27224;DHT22;14965;50.660;13.226;2023-07-20T06:09:59;15.60;99.90
27224;DHT22;14965;50.660;13.226;2023-07-20T06:12:25;15.50;99.90
27224;DHT22;14965;50.660;13.226;2023-07-20T06:14:51;15.50;99.90
27224;DHT22;14965;50.660;13.226;2023-07-20T06:17:17;15.40;99.90
27224;DHT22;14965;50.660;13.226;2023-07-20T06:19:45;15.30;99.90
27224;DHT22;14965;50.660;13.226;2023-07-20T06:22:15;15.30;99.90
27224;DHT22;14965;50.660;13.226;2023-07-20T06:24:41;15.20;99.90
27224;DHT22;14965;50.660;13.226;2023-07-20T06:27:07;15.20;99.90
27224;DHT22;14965;50.660;13.226;2023-07-20T06:29:32;15.20;99.90
27224;DHT22;14965;50.660;13.226;2023-07-20T06:31:58;15.20;99.90
27224;DHT22;14965;50.660;13.226;2023-07-20T06:34:24;15.30;99.90
27224;DHT22;14965;50.660;13.226;2023-07-20T06:36:50;15.40;99.90
27224;DHT22;14965;50.660;13.226;2023-07-20T06:39:18;15.50;99.90
27224;DHT22;14965;50.660;13.226;2023-07-20T06:41:43;15.70;99.90
27224;DHT22;14965;50.660;13.226;2023-07-20T06:44:09;15.90;99.90
27224;DHT22;14965;50.660;13.226;2023-07-20T06:46:35;16.10;99.90
27224;DHT22;14965;50.660;13.226;2023-07-20T06:49:01;16.40;99.90
27224;DHT22;14965;50.660;13.226;2023-07-20T06:51:27;16.80;99.90
27224;DHT22;14965;50.660;13.226;2023-07-20T06:53:53;17.00;99.90
27224;DHT22;14965;50.660;13.226;2023-07-20T06:56:20;17.10;99.90
27224;DHT22;14965;50.660;13.226;2023-07-20T06:58:46;16.90;99.90
27224;DHT22;14965;50.660;13.226;2023-07-20T07:01:13;16.90;99.90
27224;DHT22;14965;50.660;13.226;2023-07-20T07:03:39;16.70;99.90
27224;DHT22;14965;50.660;13.226;2023-07-20T07:06:05;16.70;99.90
27224;DHT22;14965;50.660;13.226;2023-07-20T07:08:31;16.80;99.90
27224;DHT22;14965;50.660;13.226;2023-07-20T07:10:57;16.80;99.90
27224;DHT22;14965;50.660;13.226;2023-07-20T07:13:24;17.00;99.90
27224;DHT22;14965;50.660;13.226;2023-07-20T07:15:50;17.00;99.90
27224;DHT22;14965;50.660;13.226;2023-07-20T07:18:16;16.80;99.90
27224;DHT22;14965;50.660;13.226;2023-07-20T07:20:42;16.60;99.90
27224;DHT22;14965;50.660;13.226;2023-07-20T07:23:15;16.50;99.90
27224;DHT22;14965;50.660;13.226;2023-07-20T07:25:42;16.30;99.90
27224;DHT22;14965;50.660;13.226;2023-07-20T07:28:08;16.40;99.90
27224;DHT22;14965;50.660;13.226;2023-07-20T07:30:35;16.50;99.90
27224;DHT22;14965;50.660;13.226;2023-07-20T07:33:01;16.50;99.90
27224;DHT22;14965;50.660;13.226;2023-07-20T07:35:27;16.50;99.90
27224;DHT22;14965;50.660;13.226;2023-07-20T07:37:53;16.30;99.90
27224;DHT22;14965;50.660;13.226;2023-07-20T07:40:19;16.20;99.90
27224;DHT22;14965;50.660;13.226;2023-07-20T07:42:45;16.00;99.90
27224;DHT22;14965;50.660;13.226;2023-07-20T07:45:11;16.00;99.90
27224;DHT22;14965;50.660;13.226;2023-07-20T07:47:38;16.10;99.90
27224;DHT22;14965;50.660;13.226;2023-07-20T07:50:05;16.40;99.90
27224;DHT22;14965;50.660;13.226;2023-07-20T07:52:31;16.70;99.90
27224;DHT22;14965;50.660;13.226;2023-07-20T07:54:57;16.70;99.90
27224;DHT22;14965;50.660;13.226;2023-07-20T07:57:23;16.70;99.90
27224;DHT22;14965;50.660;13.226;2023-07-20T07:59:49;16.60;99.90
27224;DHT22;14965;50.660;13.226;2023-07-20T08:02:15;16.50;99.90
27224;DHT22;14965;50.660;13.226;2023-07-20T08:04:42;16.40;99.90
27224;DHT22;14965;50.660;13.226;2023-07-20T08:07:08;16.20;99.90
27224;DHT22;14965;50.660;13.226;2023-07-20T08:09:34;16.10;99.90
27224;DHT22;14965;50.660;13.226;2023-07-20T08:12:00;15.90;99.90
27224;DHT22;14965;50.660;13.226;2023-07-20T08:14:26;15.80;99.90
27224;DHT22;14965;50.660;13.226;2023-07-20T08:16:52;15.80;99.90
27224;DHT22;14965;50.660;13.226;2023-07-20T08:19:19;15.80;99.90
27224;DHT22;14965;50.660;13.226;2023-07-20T08:21:47;15.80;99.90
27224;DHT22;14965;50.660;13.226;2023-07-20T08:24:13;15.80;99.90
27224;DHT22;14965;50.660;13.226;2023-07-20T08:26:39;15.70;99.90
27224;DHT22;14965;50.660;13.226;2023-07-20T08:29:05;15.70;99.90
27224;DHT22;14965;50.660;13.226;2023-07-20T08:31:31;15.60;99.90
27224;DHT22;14965;50.660;13.226;2023-07-20T08:33:56;15.70;99.90
27224;DHT22;14965;50.660;13.226;2023-07-20T08:36:22;15.60;99.90
27224;DHT22;14965;50.660;13.226;2023-07-20T08:38:50;15.80;99.90
27224;DHT22;14965;50.660;13.226;2023-07-20T08:41:16;15.90;99.90
27224;DHT22;14965;50.660;13.226;2023-07-20T08:43:45;16.00;99.90
27224;DHT22;14965;50.660;13.226;2023-07-20T08:46:12;16.60;99.90
27224;DHT22;14965;50.660;13.226;2023-07-20T08:48:40;17.20;99.90
27224;DHT22;14965;50.660;13.226;2023-07-20T08:51:07;17.60;99.90
27224;DHT22;14965;50.660;13.226;2023-07-20T08:53:33;17.90;99.90
27224;DHT22;14965;50.660;13.226;2023-07-20T08:56:02;18.30;99.90
27224;DHT22;14965;50.660;13.226;2023-07-20T08:58:30;18.40;99.90
27224;DHT22;14965;50.660;13.226;2023-07-20T09:00:57;18.40;99.90
27224;DHT22;14965;50.660;13.226;2023-07-20T09:03:24;18.40;99.90
27224;DHT22;14965;50.660;13.226;2023-07-20T09:05:50;18.60;99.90
27224;DHT22;14965;50.660;13.226;2023-07-20T09:08:16;18.60;99.90
27224;DHT22;14965;50.660;13.226;2023-07-20T09:10:42;18.70;99.90
27224;DHT22;14965;50.660;13.226;2023-07-20T09:13:09;18.80;99.90
27224;DHT22;14965;50.660;13.226;2023-07-20T09:15:45;19.40;99.90
27224;DHT22;14965;50.660;13.226;2023-07-20T09:18:11;19.90;99.90
27224;DHT22;14965;50.660;13.226;2023-07-20T09:20:38;20.20;99.90
27224;DHT22;14965;50.660;13.226;2023-07-20T09:23:04;20.40;99.90
27224;DHT22;14965;50.660;13.226;2023-07-20T09:25:30;20.20;99.90
27224;DHT22;14965;50.660;13.226;2023-07-20T09:27:58;19.70;99.90
27224;DHT22;14965;50.660;13.226;2023-07-20T09:30:29;19.40;99.90
27224;DHT22;14965;50.660;13.226;2023-07-20T09:32:55;19.40;99.90
27224;DHT22;14965;50.660;13.226;2023-07-20T09:35:22;19.50;99.90
27224;DHT22;14965;50.660;13.226;2023-07-20T09:37:50;19.70;99.90
27224;DHT22;14965;50.660;13.226;2023-07-20T09:40:17;19.90;99.90
27224;DHT22;14965;50.660;13.226;2023-07-20T09:42:44;19.70;99.90
27224;DHT22;14965;50.660;13.226;2023-07-20T09:45:10;19.50;99.90
27224;DHT22;14965;50.660;13.226;2023-07-20T09:47:38;19.30;99.90
27224;DHT22;14965;50.660;13.226;2023-07-20T09:50:05;19.30;99.90
27224;DHT22;14965;50.660;13.226;2023-07-20T09:52:34;19.40;99.90
27224;DHT22;14965;50.660;13.226;2023-07-20T09:55:01;19.40;99.90
27224;DHT22;14965;50.660;13.226;2023-07-20T09:57:29;19.50;99.90
27224;DHT22;14965;50.660;13.226;2023-07-20T09:59:56;19.50;99.90
27224;DHT22;14965;50.660;13.226;2023-07-20T10:02:25;19.60;99.90
27224;DHT22;14965;50.660;13.226;2023-07-20T10:05:01;19.60;99.90
27224;DHT22;14965;50.660;13.226;2023-07-20T10:07:30;19.70;99.90
27224;DHT22;14965;50.660;13.226;2023-07-20T10:09:58;19.70;99.90
27224;DHT22;14965;50.660;13.226;2023-07-20T10:12:28;19.90;99.90
27224;DHT22;14965;50.660;13.226;2023-07-20T10:15:02;20.10;99.90
27224;DHT22;14965;50.660;13.226;2023-07-20T10:17:37;20.20;99.90
27224;DHT22;14965;50.660;13.226;2023-07-20T10:20:11;20.30;99.90
27224;DHT22;14965;50.660;13.226;2023-07-20T10:22:38;20.10;99.90
27224;DHT22;14965;50.660;13.226;2023-07-20T10:25:06;20.00;99.90
27224;DHT22;14965;50.660;13.226;2023-07-20T10:27:32;19.90;99.90
27224;DHT22;14965;50.660;13.226;2023-07-20T10:29:58;19.90;99.90
27224;DHT22;14965;50.660;13.226;2023-07-20T10:32:25;20.10;99.90
27224;DHT22;14965;50.660;13.226;2023-07-20T10:34:51;20.20;99.90
27224;DHT22;14965;50.660;13.226;2023-07-20T10:37:49;20.10;99.90
27224;DHT22;14965;50.660;13.226;2023-07-20T10:40:33;20.20;99.90
27224;DHT22;14965;50.660;13.226;2023-07-20T10:43:01;20.30;99.90
27224;DHT22;14965;50.660;13.226;2023-07-20T10:45:41;20.50;99.90
27224;DHT22;14965;50.660;13.226;2023-07-20T10:48:15;20.90;99.90
27224;DHT22;14965;50.660;13.226;2023-07-20T10:50:43;21.20;99.90
27224;DHT22;14965;50.660;13.226;2023-07-20T10:53:23;21.40;99.90
27224;DHT22;14965;50.660;13.226;2023-07-20T10:56:06;21.70;99.90
27224;DHT22;14965;50.660;13.226;2023-07-20T10:58:33;22.00;99.90
27224;DHT22;14965;50.660;13.226;2023-07-20T11:01:04;22.30;99.90
27224;DHT22;14965;50.660;13.226;2023-07-20T11:03:31;22.40;99.90
27224;DHT22;14965;50.660;13.226;2023-07-20T11:06:30;22.40;99.90
27224;DHT22;14965;50.660;13.226;2023-07-20T11:09:12;21.80;99.90
27224;DHT22;14965;50.660;13.226;2023-07-20T11:11:40;20.90;99.90
27224;DHT22;14965;50.660;13.226;2023-07-20T11:14:08;20.50;99.90
27224;DHT22;14965;50.660;13.226;2023-07-20T11:16:37;20.10;99.90
27224;DHT22;14965;50.660;13.226;2023-07-20T11:19:16;20.20;99.90
27224;DHT22;14965;50.660;13.226;2023-07-20T11:21:46;20.30;99.90
27224;DHT22;14965;50.660;13.226;2023-07-20T11:24:16;20.20;99.90
27224;DHT22;14965;50.660;13.226;2023-07-20T11:26:44;19.90;99.90
27224;DHT22;14965;50.660;13.226;2023-07-20T11:29:11;19.80;99.90
27224;DHT22;14965;50.660;13.226;2023-07-20T11:31:38;19.90;99.90
27224;DHT22;14965;50.660;13.226;2023-07-20T11:34:05;20.00;99.90
27224;DHT22;14965;50.660;13.226;2023-07-20T11:36:31;19.90;99.90
27224;DHT22;14965;50.660;13.226;2023-07-20T11:38:58;20.00;99.90
27224;DHT22;14965;50.660;13.226;2023-07-20T11:41:24;20.00;99.90
27224;DHT22;14965;50.660;13.226;2023-07-20T11:43:50;19.90;99.90
27224;DHT22;14965;50.660;13.226;2023-07-20T11:46:17;20.20;99.90
27224;DHT22;14965;50.660;13.226;2023-07-20T11:48:43;20.60;99.90
27224;DHT22;14965;50.660;13.226;2023-07-20T11:51:13;20.80;99.90
27224;DHT22;14965;50.660;13.226;2023-07-20T11:53:39;21.00;99.90
27224;DHT22;14965;50.660;13.226;2023-07-20T11:56:07;21.40;99.90
27224;DHT22;14965;50.660;13.226;2023-07-20T11:58:33;21.80;99.90
27224;DHT22;14965;50.660;13.226;2023-07-20T12:00:59;21.90;99.90
27224;DHT22;14965;50.660;13.226;2023-07-20T12:03:25;21.90;99.90
27224;DHT22;14965;50.660;13.226;2023-07-20T12:05:52;21.80;99.90
27224;DHT22;14965;50.660;13.226;2023-07-20T12:08:18;21.80;99.90
27224;DHT22;14965;50.660;13.226;2023-07-20T12:10:44;21.90;99.90
27224;DHT22;14965;50.660;13.226;2023-07-20T12:13:11;21.90;99.90
27224;DHT22;14965;50.660;13.226;2023-07-20T12:15:37;21.70;99.90
27224;DHT22;14965;50.660;13.226;2023-07-20T12:18:04;21.50;99.90
27224;DHT22;14965;50.660;13.226;2023-07-20T12:20:32;21.40;99.90
27224;DHT22;14965;50.660;13.226;2023-07-20T12:23:00;21.00;99.90
27224;DHT22;14965;50.660;13.226;2023-07-20T12:25:36;20.80;99.90
27224;DHT22;14965;50.660;13.226;2023-07-20T12:28:05;20.60;99.90
27224;DHT22;14965;50.660;13.226;2023-07-20T12:30:33;20.20;99.90
27224;DHT22;14965;50.660;13.226;2023-07-20T12:32:59;20.20;99.90
27224;DHT22;14965;50.660;13.226;2023-07-20T12:35:25;20.10;99.90
27224;DHT22;14965;50.660;13.226;2023-07-20T12:37:51;20.20;99.90
27224;DHT22;14965;50.660;13.226;2023-07-20T12:40:17;20.40;99.90
27224;DHT22;14965;50.660;13.226;2023-07-20T12:42:43;20.60;99.90
27224;DHT22;14965;50.660;13.226;2023-07-20T12:45:09;20.50;99.90
27224;DHT22;14965;50.660;13.226;2023-07-20T12:47:37;19.50;99.90
27224;DHT22;14965;50.660;13.226;2023-07-20T12:50:03;18.80;99.90
27224;DHT22;14965;50.660;13.226;2023-07-20T12:52:29;18.40;99.90
27224;DHT22;14965;50.660;13.226;2023-07-20T12:54:55;18.10;99.90
27224;DHT22;14965;50.660;13.226;2023-07-20T12:57:21;17.80;99.90
27224;DHT22;14965;50.660;13.226;2023-07-20T12:59:47;17.60;99.90
27224;DHT22;14965;50.660;13.226;2023-07-20T13:02:13;17.40;99.90
27224;DHT22;14965;50.660;13.226;2023-07-20T13:04:41;16.90;99.90
27224;DHT22;14965;50.660;13.226;2023-07-20T13:07:09;16.60;99.90
27224;DHT22;14965;50.660;13.226;2023-07-20T13:09:36;16.40;99.90
27224;DHT22;14965;50.660;13.226;2023-07-20T13:12:02;16.30;99.90
27224;DHT22;14965;50.660;13.226;2023-07-20T13:14:28;16.20;99.90
27224;DHT22;14965;50.660;13.226;2023-07-20T13:16:55;16.20;99.90
27224;DHT22;14965;50.660;13.226;2023-07-20T13:19:20;16.30;99.90
27224;DHT22;14965;50.660;13.226;2023-07-20T13:21:48;16.40;99.90
27224;DHT22;14965;50.660;13.226;2023-07-20T13:24:14;16.40;99.90
27224;DHT22;14965;50.660;13.226;2023-07-20T13:26:40;16.30;99.90
27224;DHT22;14965;50.660;13.226;2023-07-20T13:29:05;16.30;99.90
27224;DHT22;14965;50.660;13.226;2023-07-20T13:31:31;16.40;99.90
27224;DHT22;14965;50.660;13.226;2023-07-20T13:33:57;16.40;99.90
27224;DHT22;14965;50.660;13.226;2023-07-20T13:36:23;16.30;99.90
27224;DHT22;14965;50.660;13.226;2023-07-20T13:38:50;16.20;99.90
27224;DHT22;14965;50.660;13.226;2023-07-20T13:41:16;16.10;99.90
27224;DHT22;14965;50.660;13.226;2023-07-20T13:43:42;16.10;99.90
27224;DHT22;14965;50.660;13.226;2023-07-20T13:46:08;16.10;99.90
27224;DHT22;14965;50.660;13.226;2023-07-20T13:48:34;16.10;99.90
27224;DHT22;14965;50.660;13.226;2023-07-20T13:51:00;16.40;99.90
27224;DHT22;14965;50.660;13.226;2023-07-20T13:53:26;16.80;99.90
27224;DHT22;14965;50.660;13.226;2023-07-20T13:55:53;17.10;99.90
27224;DHT22;14965;50.660;13.226;2023-07-20T13:58:19;17.40;99.90
27224;DHT22;14965;50.660;13.226;2023-07-20T14:00:45;17.60;99.90
27224;DHT22;14965;50.660;13.226;2023-07-20T14:03:11;17.60;99.90
27224;DHT22;14965;50.660;13.226;2023-07-20T14:05:37;17.70;99.90
27224;DHT22;14965;50.660;13.226;2023-07-20T14:08:03;17.70;99.90
27224;DHT22;14965;50.660;13.226;2023-07-20T14:10:29;17.60;99.90
27224;DHT22;14965;50.660;13.226;2023-07-20T14:12:56;17.70;99.90
27224;DHT22;14965;50.660;13.226;2023-07-20T14:15:22;17.90;99.90
27224;DHT22;14965;50.660;13.226;2023-07-20T14:17:48;17.90;99.90
27224;DHT22;14965;50.660;13.226;2023-07-20T14:20:14;17.90;99.90
27224;DHT22;14965;50.660;13.226;2023-07-20T14:22:40;17.90;99.90
27224;DHT22;14965;50.660;13.226;2023-07-20T14:25:06;17.70;99.90
27224;DHT22;14965;50.660;13.226;2023-07-20T14:27:33;17.80;99.90
27224;DHT22;14965;50.660;13.226;2023-07-20T14:30:00;17.80;99.90
27224;DHT22;14965;50.660;13.226;2023-07-20T14:32:26;17.80;99.90
27224;DHT22;14965;50.660;13.226;2023-07-20T14:34:52;17.80;99.90
27224;DHT22;14965;50.660;13.226;2023-07-20T14:37:18;17.80;99.90
27224;DHT22;14965;50.660;13.226;2023-07-20T14:39:44;17.70;99.90
27224;DHT22;14965;50.660;13.226;2023-07-20T14:42:10;17.90;99.90
27224;DHT22;14965;50.660;13.226;2023-07-20T14:44:35;18.00;99.90
27224;DHT22;14965;50.660;13.226;2023-07-20T14:47:03;18.20;99.90
27224;DHT22;14965;50.660;13.226;2023-07-20T14:49:29;18.10;99.90
27224;DHT22;14965;50.660;13.226;2023-07-20T14:51:55;18.00;99.90
27224;DHT22;14965;50.660;13.226;2023-07-20T14:54:21;18.00;99.90
27224;DHT22;14965;50.660;13.226;2023-07-20T14:56:51;17.90;99.90
27224;DHT22;14965;50.660;13.226;2023-07-20T14:59:17;17.80;99.90
27224;DHT22;14965;50.660;13.226;2023-07-20T15:01:43;17.60;99.90
27224;DHT22;14965;50.660;13.226;2023-07-20T15:04:10;17.20;99.90
27224;DHT22;14965;50.660;13.226;2023-07-20T15:06:36;17.10;99.90
27224;DHT22;14965;50.660;13.226;2023-07-20T15:09:02;17.10;99.90
27224;DHT22;14965;50.660;13.226;2023-07-20T15:11:28;17.20;99.90
27224;DHT22;14965;50.660;13.226;2023-07-20T15:13:54;17.20;99.90
27224;DHT22;14965;50.660;13.226;2023-07-20T15:16:20;17.20;99.90